createdAt,value
2023-04-10T00:00:53.431Z,10.87
2023-04-10T00:03:22.264Z,10.63
2023-04-10T00:05:50.873Z,9.27
2023-04-10T00:08:18.891Z,8.97
2023-04-10T00:10:50.919Z,8.00
2023-04-10T00:13:19.222Z,6.37
2023-04-10T00:15:47.641Z,8.63
2023-04-10T00:18:15.538Z,6.97
2023-04-10T00:20:44.004Z,7.20
2023-04-10T00:23:12.701Z,6.97
2023-04-10T00:25:40.765Z,7.03
2023-04-10T00:28:11.742Z,6.83
2023-04-10T00:30:39.845Z,5.83
2023-04-10T00:33:08.467Z,4.00
2023-04-10T00:35:36.876Z,5.33
2023-04-10T00:38:05.117Z,5.60
2023-04-10T00:40:33.133Z,5.60
2023-04-10T00:43:02.479Z,7.40
2023-04-10T00:45:32.420Z,4.83
2023-04-10T00:48:00.683Z,6.03
2023-04-10T00:50:28.766Z,5.40
2023-04-10T00:52:58.022Z,5.23
2023-04-10T00:55:27.279Z,6.67
2023-04-10T00:57:57.481Z,5.27
2023-04-10T01:00:26.013Z,7.10
2023-04-10T01:02:56.475Z,6.33
2023-04-10T01:05:26.093Z,7.20
2023-04-10T01:08:04.316Z,6.53
2023-04-10T01:10:39.785Z,8.33
2023-04-10T01:13:16.359Z,7.33
2023-04-10T01:15:49.415Z,6.37
2023-04-10T01:18:24.473Z,9.60
2023-04-10T01:20:54.909Z,6.67
2023-04-10T01:24:04.869Z,8.10
2023-04-10T01:26:45.294Z,6.93
2023-04-10T01:29:19.968Z,7.17
2023-04-10T01:31:55.488Z,8.33
2023-04-10T01:34:27.622Z,8.77
2023-04-10T01:36:59.677Z,7.53
2023-04-10T01:39:30.581Z,7.33
2023-04-10T01:42:00.641Z,8.50
2023-04-10T01:44:33.011Z,9.10
2023-04-10T01:47:02.823Z,7.37
2023-04-10T01:49:32.716Z,8.43
2023-04-10T01:52:02.950Z,7.63
2023-04-10T01:54:33.909Z,7.60
2023-04-10T01:57:04.352Z,9.83
2023-04-10T01:59:33.844Z,7.87
2023-04-10T02:02:03.305Z,7.27
2023-04-10T02:04:31.570Z,7.60
2023-04-10T02:07:04.778Z,8.47
2023-04-10T02:09:42.292Z,7.23
2023-04-10T02:12:13.900Z,6.17
2023-04-10T02:14:46.832Z,8.77
2023-04-10T02:17:17.240Z,7.20
2023-04-10T02:19:49.470Z,6.33
2023-04-10T02:22:18.620Z,6.30
2023-04-10T02:24:46.888Z,7.93
2023-04-10T02:27:15.080Z,7.70
2023-04-10T02:29:47.080Z,7.00
2023-04-10T02:32:17.537Z,5.80
2023-04-10T02:34:46.067Z,5.93
2023-04-10T02:37:14.360Z,5.73
2023-04-10T02:39:42.790Z,5.67
2023-04-10T02:42:10.797Z,4.93
2023-04-10T02:44:39.505Z,6.00
2023-04-10T02:47:09.493Z,5.13
2023-04-10T02:49:37.964Z,5.47
2023-04-10T02:52:06.288Z,5.23
2023-04-10T02:54:34.577Z,5.33
2023-04-10T02:57:02.973Z,6.37
2023-04-10T02:59:30.932Z,7.77
2023-04-10T03:01:59.419Z,7.57
2023-04-10T03:04:29.371Z,15.20
2023-04-10T03:06:57.264Z,10.17
2023-04-10T03:09:25.542Z,7.53
2023-04-10T03:11:53.470Z,9.50
2023-04-10T03:14:21.739Z,8.73
2023-04-10T03:16:50.665Z,9.37
2023-04-10T03:19:20.030Z,9.97
2023-04-10T03:21:49.328Z,8.87
2023-04-10T03:24:17.876Z,12.57
2023-04-10T03:26:46.642Z,10.60
2023-04-10T03:29:19.205Z,10.13
2023-04-10T03:31:47.671Z,7.93
2023-04-10T03:34:17.055Z,9.27
2023-04-10T03:36:45.200Z,8.50
2023-04-10T03:39:14.697Z,8.23
2023-04-10T03:41:42.584Z,9.37
2023-04-10T03:44:10.963Z,11.23
2023-04-10T03:46:39.231Z,9.30
2023-04-10T03:49:07.616Z,7.43
2023-04-10T03:51:36.191Z,14.20
2023-04-10T03:54:04.449Z,12.73
2023-04-10T03:56:33.861Z,13.07
2023-04-10T03:59:02.269Z,13.90
2023-04-10T04:01:30.773Z,10.10
2023-04-10T04:03:59.343Z,10.90
2023-04-10T04:06:29.030Z,10.97
2023-04-10T04:08:57.257Z,6.83
2023-04-10T04:11:25.533Z,10.07
2023-04-10T04:13:55.423Z,8.77
2023-04-10T04:16:23.794Z,8.23
2023-04-10T04:18:51.911Z,7.63
2023-04-10T04:21:20.270Z,10.60
2023-04-10T04:23:48.591Z,12.13
2023-04-10T04:26:16.658Z,11.27
2023-04-10T04:28:44.864Z,14.03
2023-04-10T04:31:14.192Z,11.23
2023-04-10T04:33:42.503Z,11.57
2023-04-10T04:36:10.876Z,13.83
2023-04-10T04:38:38.861Z,13.93
2023-04-10T04:41:09.324Z,11.53
2023-04-10T04:43:37.283Z,13.93
2023-04-10T04:46:05.872Z,18.10
2023-04-10T04:48:36.906Z,16.77
2023-04-10T04:51:08.331Z,22.63
2023-04-10T04:53:37.228Z,21.20
2023-04-10T04:56:05.928Z,17.90
2023-04-10T04:58:35.177Z,16.73
2023-04-10T05:01:03.117Z,16.17
2023-04-10T05:03:32.098Z,21.77
2023-04-10T05:06:01.679Z,17.73
2023-04-10T05:08:29.690Z,28.83
2023-04-10T05:10:57.755Z,21.57
2023-04-10T05:13:25.972Z,16.70
2023-04-10T05:15:53.952Z,14.17
2023-04-10T05:18:23.967Z,14.40
2023-04-10T05:20:52.776Z,18.27
2023-04-10T05:23:22.533Z,15.77
2023-04-10T05:25:50.722Z,16.70
2023-04-10T05:28:21.230Z,12.23
2023-04-10T05:30:49.269Z,17.93
2023-04-10T05:33:17.515Z,13.10
2023-04-10T05:35:45.763Z,13.50
2023-04-10T05:38:13.711Z,13.67
2023-04-10T05:40:46.882Z,14.83
2023-04-10T05:43:15.470Z,12.50
2023-04-10T05:45:45.715Z,11.77
2023-04-10T05:48:17.085Z,14.20
2023-04-10T05:50:45.429Z,10.90
2023-04-10T05:53:16.002Z,10.37
2023-04-10T05:55:45.309Z,9.67
2023-04-10T05:58:13.523Z,9.23
2023-04-10T06:00:41.556Z,10.23
2023-04-10T06:03:10.082Z,12.80
2023-04-10T06:05:39.600Z,13.93
2023-04-10T06:08:07.696Z,12.67
2023-04-10T06:10:36.277Z,10.33
2023-04-10T06:13:05.940Z,12.10
2023-04-10T06:15:34.635Z,11.43
2023-04-10T06:18:02.897Z,12.93
2023-04-10T06:20:30.962Z,13.37
2023-04-10T06:23:01.792Z,10.00
2023-04-10T06:25:30.511Z,10.20
2023-04-10T06:27:59.264Z,9.53
2023-04-10T06:30:29.127Z,9.67
2023-04-10T06:32:57.149Z,10.93
2023-04-10T06:35:27.462Z,9.87
2023-04-10T06:37:55.650Z,8.93
2023-04-10T06:40:24.106Z,10.63
2023-04-10T06:42:51.992Z,9.57
2023-04-10T06:45:20.485Z,11.10
2023-04-10T06:47:49.830Z,9.93
2023-04-10T06:50:19.347Z,10.80
2023-04-10T06:52:48.262Z,11.10
2023-04-10T06:55:17.182Z,9.77
2023-04-10T06:57:45.769Z,11.63
2023-04-10T07:00:14.745Z,10.47
2023-04-10T07:02:42.691Z,11.57
2023-04-10T07:05:12.945Z,12.77
2023-04-10T07:07:40.882Z,14.87
2023-04-10T07:10:13.531Z,11.47
2023-04-10T07:12:42.189Z,11.47
2023-04-10T07:15:12.873Z,10.30
2023-04-10T07:17:41.174Z,10.33
2023-04-10T07:20:12.157Z,10.47
2023-04-10T07:22:40.288Z,11.07
2023-04-10T07:25:09.602Z,11.57
2023-04-10T07:27:39.840Z,14.00
2023-04-10T07:30:10.811Z,12.00
2023-04-10T07:32:42.298Z,13.53
2023-04-10T07:35:12.471Z,15.77
2023-04-10T07:37:44.299Z,11.80
2023-04-10T07:40:12.988Z,11.93
2023-04-10T07:42:41.253Z,12.47
2023-04-10T07:45:11.379Z,11.90
2023-04-10T07:47:40.564Z,12.67
2023-04-10T07:50:10.094Z,11.37
2023-04-10T07:52:39.540Z,11.10
2023-04-10T07:55:08.623Z,10.63
2023-04-10T07:57:37.439Z,12.33
2023-04-10T08:00:06.793Z,11.33
2023-04-10T08:02:35.040Z,13.67
2023-04-10T08:05:03.313Z,12.63
2023-04-10T08:07:31.621Z,12.67
2023-04-10T08:10:01.188Z,12.40
2023-04-10T08:12:29.180Z,11.43
2023-04-10T08:15:01.636Z,11.37
2023-04-10T08:17:29.551Z,12.97
2023-04-10T08:19:58.078Z,11.50
2023-04-10T08:22:26.095Z,13.07
2023-04-10T08:24:54.113Z,14.07
2023-04-10T08:27:23.443Z,12.63
2023-04-10T08:29:51.546Z,12.13
2023-04-10T08:32:20.269Z,12.67
2023-04-10T08:34:48.493Z,12.30
2023-04-10T08:37:16.632Z,12.17
2023-04-10T08:39:44.904Z,15.33
2023-04-10T08:42:13.901Z,12.83
2023-04-10T08:44:43.794Z,14.37
2023-04-10T08:47:12.023Z,14.47
2023-04-10T08:49:46.778Z,15.07
2023-04-10T08:52:17.474Z,9.90
2023-04-10T08:54:49.940Z,12.40
2023-04-10T08:57:20.942Z,8.73
2023-04-10T08:59:51.775Z,10.50
2023-04-10T09:02:20.283Z,11.30
2023-04-10T09:04:50.663Z,12.40
2023-04-10T09:07:19.309Z,11.23
2023-04-10T09:09:47.342Z,11.50
2023-04-10T09:12:16.183Z,9.57
2023-04-10T09:14:45.788Z,9.80
2023-04-10T09:17:20.587Z,11.53
2023-04-10T09:19:50.196Z,13.30
2023-04-10T09:22:19.237Z,12.03
2023-04-10T09:24:48.591Z,10.73
2023-04-10T09:27:32.770Z,8.23
2023-04-10T09:30:01.032Z,12.10
2023-04-10T09:32:42.146Z,12.47
2023-04-10T09:35:11.813Z,15.57
2023-04-10T09:37:42.665Z,11.47
2023-04-10T09:40:21.765Z,8.30
2023-04-10T09:42:50.076Z,11.07
2023-04-10T09:45:20.805Z,8.63
2023-04-10T09:48:06.383Z,9.37
2023-04-10T09:50:40.451Z,8.80
2023-04-10T09:53:09.218Z,6.63
2023-04-10T09:55:38.041Z,8.90
2023-04-10T09:58:06.745Z,10.07
2023-04-10T10:00:40.322Z,8.70
2023-04-10T10:03:11.932Z,10.47
2023-04-10T10:05:43.646Z,8.03
2023-04-10T10:08:19.392Z,8.27
2023-04-10T10:10:49.453Z,8.00
2023-04-10T10:13:21.721Z,8.80
2023-04-10T10:15:55.159Z,8.87
2023-04-10T10:18:30.380Z,8.80
2023-04-10T10:20:58.867Z,10.73
2023-04-10T10:23:28.872Z,12.63
2023-04-10T10:26:01.692Z,9.77
2023-04-10T10:28:34.205Z,7.80
2023-04-10T10:31:04.597Z,9.00
2023-04-10T10:33:37.150Z,9.20
2023-04-10T10:36:09.575Z,10.07
2023-04-10T10:38:42.969Z,9.10
2023-04-10T10:41:18.769Z,9.80
2023-04-10T10:44:03.285Z,11.00
2023-04-10T10:46:39.423Z,6.20
2023-04-10T10:49:08.896Z,11.97
2023-04-10T10:51:48.297Z,7.40
2023-04-10T10:54:44.663Z,7.87
2023-04-10T10:57:49.297Z,10.93
2023-04-10T11:00:18.374Z,7.57
2023-04-10T11:02:49.561Z,7.43
2023-04-10T11:05:52.465Z,7.53
2023-04-10T11:08:44.548Z,6.47
2023-04-10T11:11:16.182Z,9.60
2023-04-10T11:14:18.369Z,7.10
2023-04-10T11:16:49.621Z,7.27
2023-04-10T11:19:29.053Z,10.23
2023-04-10T11:22:08.947Z,7.40
2023-04-10T11:24:58.069Z,6.83
2023-04-10T11:27:45.237Z,7.90
2023-04-10T11:30:35.865Z,9.20
2023-04-10T11:33:06.220Z,7.13
2023-04-10T11:35:34.758Z,8.53
2023-04-10T11:38:18.593Z,6.20
2023-04-10T11:41:10.631Z,6.33
2023-04-10T11:43:40.531Z,8.00
2023-04-10T11:46:08.961Z,6.70
2023-04-10T11:48:38.461Z,9.67
2023-04-10T11:51:10.697Z,8.70
2023-04-10T11:53:40.358Z,11.27
2023-04-10T11:56:16.976Z,8.07
2023-04-10T11:58:45.487Z,9.13
2023-04-10T12:01:14.760Z,6.37
2023-04-10T12:03:44.487Z,6.63
2023-04-10T12:06:14.089Z,7.37
2023-04-10T12:08:46.261Z,9.13
2023-04-10T12:11:16.167Z,8.50
2023-04-10T12:13:44.282Z,8.13
2023-04-10T12:16:13.138Z,6.77
2023-04-10T12:18:41.973Z,9.43
2023-04-10T12:21:10.344Z,7.60
2023-04-10T12:23:40.200Z,9.73
2023-04-10T12:26:30.424Z,7.83
2023-04-10T12:28:59.678Z,8.87
2023-04-10T12:31:33.985Z,10.20
2023-04-10T12:34:05.787Z,8.60
2023-04-10T12:36:35.253Z,4.40
2023-04-10T12:39:05.502Z,5.93
2023-04-10T12:41:37.324Z,4.23
2023-04-10T12:44:09.934Z,3.33
2023-04-10T12:46:38.370Z,5.03
2023-04-10T12:49:13.925Z,6.23
2023-04-10T12:51:51.451Z,5.33
2023-04-10T12:54:29.875Z,4.97
2023-04-10T12:56:59.468Z,6.80
2023-04-10T12:59:28.437Z,8.10
2023-04-10T13:01:57.233Z,6.60
2023-04-10T13:04:25.731Z,5.43
2023-04-10T13:06:53.796Z,7.37
2023-04-10T13:09:22.224Z,9.90
2023-04-10T13:11:51.859Z,7.70
2023-04-10T13:14:21.810Z,5.80
2023-04-10T13:16:49.729Z,7.40
2023-04-10T13:19:17.984Z,7.60
2023-04-10T13:21:46.046Z,7.10
2023-04-10T13:24:16.712Z,6.70
2023-04-10T13:26:45.039Z,6.20
2023-04-10T13:29:13.364Z,7.40
2023-04-10T13:31:43.925Z,6.63
2023-04-10T13:34:12.818Z,7.30
2023-04-10T13:36:41.092Z,7.17
2023-04-10T13:39:12.133Z,8.83
2023-04-10T13:41:40.579Z,7.13
2023-04-10T13:44:08.513Z,7.33
2023-04-10T13:46:36.747Z,8.93
2023-04-10T13:49:06.477Z,8.37
2023-04-10T13:51:35.273Z,9.73
2023-04-10T13:54:04.960Z,12.33
2023-04-10T13:56:33.531Z,8.13
2023-04-10T13:59:01.441Z,8.43
2023-04-10T14:01:29.451Z,10.37
2023-04-10T14:03:58.046Z,8.37
2023-04-10T14:06:28.403Z,8.27
2023-04-10T14:08:56.660Z,8.87
2023-04-10T14:11:24.849Z,9.17
2023-04-10T14:13:52.786Z,9.97
2023-04-10T14:16:20.933Z,7.63
2023-04-10T14:18:48.934Z,7.17
2023-04-10T14:21:18.225Z,6.07
2023-04-10T14:23:49.071Z,4.10
2023-04-10T14:26:17.345Z,3.90
2023-04-10T14:28:45.374Z,4.63
2023-04-10T14:31:13.647Z,4.97
2023-04-10T14:33:41.800Z,5.83
2023-04-10T14:36:10.937Z,3.77
2023-04-10T14:38:40.372Z,7.30
2023-04-10T14:41:10.645Z,7.47
2023-04-10T14:43:39.062Z,6.53
2023-04-10T14:46:07.928Z,6.03
2023-04-10T14:48:36.058Z,5.93
2023-04-10T14:51:05.502Z,6.87
2023-04-10T14:53:33.899Z,6.07
2023-04-10T14:56:05.096Z,5.83
2023-04-10T14:58:34.525Z,7.07
2023-04-10T15:01:03.133Z,5.80
2023-04-10T15:03:32.864Z,6.37
2023-04-10T15:06:01.459Z,6.00
2023-04-10T15:08:29.730Z,6.03
2023-04-10T15:10:58.660Z,8.67
2023-04-10T15:13:26.787Z,5.90
2023-04-10T15:15:56.465Z,7.20
2023-04-10T15:18:25.555Z,6.90
2023-04-10T15:20:55.433Z,8.57
2023-04-10T15:23:23.529Z,7.73
2023-04-10T15:25:52.539Z,8.23
2023-04-10T15:28:20.500Z,9.00
2023-04-10T15:30:50.168Z,10.03
2023-04-10T15:33:21.800Z,8.23
2023-04-10T15:35:50.698Z,8.33
2023-04-10T15:38:18.782Z,8.83
2023-04-10T15:40:47.276Z,9.90
2023-04-10T15:43:15.436Z,11.30
2023-04-10T15:45:43.615Z,8.80
2023-04-10T15:48:11.665Z,7.50
2023-04-10T15:50:41.648Z,9.30
2023-04-10T15:53:09.706Z,9.53
2023-04-10T15:55:40.582Z,10.20
2023-04-10T15:58:08.968Z,8.73
2023-04-10T16:00:39.474Z,9.20
2023-04-10T16:03:07.954Z,8.83
2023-04-10T16:05:35.992Z,8.87
2023-04-10T16:08:05.527Z,8.97
2023-04-10T16:10:33.654Z,10.23
2023-04-10T16:13:04.478Z,7.90
2023-04-10T16:15:35.594Z,10.00
2023-04-10T16:18:04.776Z,10.90
2023-04-10T16:20:32.814Z,10.50
2023-04-10T16:23:01.864Z,8.93
2023-04-10T16:25:31.344Z,8.83
2023-04-10T16:28:00.880Z,7.83
2023-04-10T16:30:28.885Z,6.07
2023-04-10T16:32:57.118Z,5.13
2023-04-10T16:35:26.925Z,5.77
2023-04-10T16:37:55.134Z,4.93
2023-04-10T16:40:23.366Z,6.87
2023-04-10T16:42:52.730Z,4.60
2023-04-10T16:45:20.961Z,7.80
2023-04-10T16:47:49.236Z,4.93
2023-04-10T16:50:17.471Z,6.67
2023-04-10T16:52:45.423Z,6.07
2023-04-10T16:55:13.898Z,4.93
2023-04-10T16:57:42.074Z,5.30
2023-04-10T17:00:13.461Z,6.10
2023-04-10T17:02:43.141Z,6.53
2023-04-10T17:05:13.665Z,7.83
2023-04-10T17:07:43.828Z,6.37
2023-04-10T17:10:13.045Z,7.03
2023-04-10T17:12:41.258Z,7.90
2023-04-10T17:15:11.670Z,8.17
2023-04-10T17:17:41.118Z,10.77
2023-04-10T17:20:12.057Z,6.77
2023-04-10T17:22:40.835Z,7.80
2023-04-10T17:25:10.261Z,7.87
2023-04-10T17:27:40.494Z,9.00
2023-04-10T17:30:15.083Z,7.07
2023-04-10T17:32:43.613Z,9.10
2023-04-10T17:35:12.267Z,7.23
2023-04-10T17:37:40.469Z,8.53
2023-04-10T17:40:10.358Z,6.90
2023-04-10T17:42:38.331Z,7.73
2023-04-10T17:45:09.209Z,7.47
2023-04-10T17:47:38.951Z,7.03
2023-04-10T17:50:08.199Z,6.57
2023-04-10T17:52:36.715Z,6.20
2023-04-10T17:55:05.214Z,7.10
2023-04-10T17:57:33.529Z,7.13
2023-04-10T18:00:01.661Z,7.63
2023-04-10T18:02:29.837Z,7.77
2023-04-10T18:05:00.487Z,7.80
2023-04-10T18:07:28.317Z,11.00
2023-04-10T18:09:56.897Z,10.07
2023-04-10T18:12:25.076Z,10.57
2023-04-10T18:14:53.452Z,8.77
2023-04-10T18:17:21.924Z,8.90
2023-04-10T18:19:51.475Z,9.03
2023-04-10T18:22:20.809Z,10.17
2023-04-10T18:24:49.612Z,10.20
2023-04-10T18:27:17.607Z,13.13
2023-04-10T18:29:46.584Z,10.90
2023-04-10T18:32:14.729Z,11.47
2023-04-10T18:34:42.787Z,14.97
2023-04-10T18:37:10.849Z,10.90
2023-04-10T18:39:40.358Z,13.57
2023-04-10T18:42:11.957Z,9.93
2023-04-10T18:44:40.110Z,10.10
2023-04-10T18:47:08.315Z,10.77
2023-04-10T18:49:36.803Z,12.83
2023-04-10T18:52:04.740Z,11.83
2023-04-10T18:54:33.895Z,32.50
2023-04-10T18:57:03.357Z,27.13
2023-04-10T18:59:32.171Z,37.00
2023-04-10T19:02:00.616Z,38.47
2023-04-10T19:04:29.107Z,34.20
2023-04-10T19:06:57.360Z,23.30
2023-04-10T19:09:28.455Z,20.87
2023-04-10T19:11:56.662Z,14.20
2023-04-10T19:14:26.137Z,12.70
2023-04-10T19:16:54.149Z,12.07
2023-04-10T19:19:24.012Z,14.50
2023-04-10T19:21:51.922Z,16.90
2023-04-10T19:24:21.421Z,14.17
2023-04-10T19:26:49.639Z,12.00
2023-04-10T19:29:17.735Z,12.33
2023-04-10T19:31:47.502Z,13.10
2023-04-10T19:34:16.220Z,12.83
2023-04-10T19:36:44.060Z,12.20
2023-04-10T19:39:13.882Z,15.30
2023-04-10T19:41:42.604Z,12.27
2023-04-10T19:44:10.913Z,13.93
2023-04-10T19:46:39.138Z,13.40
2023-04-10T19:49:08.773Z,13.07
2023-04-10T19:51:36.753Z,15.37
2023-04-10T19:54:04.810Z,13.57
2023-04-10T19:56:34.989Z,14.20
2023-04-10T19:59:03.012Z,15.70
2023-04-10T20:01:31.242Z,16.90
2023-04-10T20:03:59.762Z,14.90
2023-04-10T20:06:29.379Z,15.30
2023-04-10T20:08:57.879Z,16.07
2023-04-10T20:11:30.684Z,16.07
2023-04-10T20:13:58.754Z,15.63
2023-04-10T20:16:27.203Z,15.17
2023-04-10T20:18:55.996Z,15.00
2023-04-10T20:21:24.501Z,14.27
2023-04-10T20:23:54.092Z,14.70
2023-04-10T20:26:23.535Z,12.83
2023-04-10T20:28:54.354Z,13.60
2023-04-10T20:31:22.770Z,13.23
2023-04-10T20:33:51.193Z,13.03
2023-04-10T20:36:19.412Z,12.87
2023-04-10T20:38:47.636Z,12.27
2023-04-10T20:41:17.043Z,15.63
2023-04-10T20:43:45.094Z,15.37
2023-04-10T20:46:13.587Z,16.07
2023-04-10T20:48:41.530Z,15.30
2023-04-10T20:51:10.566Z,18.40
2023-04-10T20:53:39.977Z,14.17
2023-04-10T20:56:08.740Z,15.70
2023-04-10T20:58:40.237Z,16.57
2023-04-10T21:01:10.195Z,14.37
2023-04-10T21:03:38.633Z,14.97
2023-04-10T21:06:08.035Z,17.40
2023-04-10T21:08:36.090Z,15.93
2023-04-10T21:11:03.937Z,16.27
2023-04-10T21:13:32.137Z,18.47
2023-04-10T21:16:02.004Z,16.23
2023-04-10T21:18:30.189Z,17.83
2023-04-10T21:20:58.046Z,18.47
2023-04-10T21:23:26.397Z,19.63
2023-04-10T21:25:54.394Z,30.10
2023-04-10T21:28:22.804Z,24.23
2023-04-10T21:30:51.325Z,28.60
2023-04-10T21:33:20.899Z,27.27
2023-04-10T21:35:49.227Z,30.83
2023-04-10T21:38:17.407Z,34.83
2023-04-10T21:40:51.701Z,31.03
2023-04-10T21:43:19.809Z,33.17
2023-04-10T21:45:48.329Z,31.03
2023-04-10T21:48:16.836Z,34.23
2023-04-10T21:50:46.325Z,33.97
2023-04-10T21:53:14.578Z,29.87
2023-04-10T21:55:42.650Z,33.33
2023-04-10T21:58:10.843Z,24.87
2023-04-10T22:00:41.557Z,21.87
2023-04-10T22:03:09.902Z,18.97
2023-04-10T22:05:38.374Z,23.27
2023-04-10T22:08:08.461Z,23.33
2023-04-10T22:10:37.419Z,20.40
2023-04-10T22:13:06.070Z,18.53
2023-04-10T22:15:34.189Z,17.83
2023-04-10T22:18:02.834Z,17.20
2023-04-10T22:20:32.413Z,17.43
2023-04-10T22:23:03.412Z,16.47
2023-04-10T22:25:33.912Z,16.00
2023-04-10T22:28:04.863Z,17.40
2023-04-10T22:30:32.842Z,16.97
2023-04-10T22:33:01.368Z,15.07
2023-04-10T22:35:30.411Z,15.60
2023-04-10T22:37:58.763Z,15.57
2023-04-10T22:40:27.087Z,16.70
2023-04-10T22:42:56.509Z,17.57
2023-04-10T22:45:24.549Z,19.57
2023-04-10T22:47:55.332Z,18.93
2023-04-10T22:50:23.492Z,19.00
2023-04-10T22:52:51.539Z,22.90
2023-04-10T22:55:20.053Z,23.90
2023-04-10T22:57:49.597Z,24.40
2023-04-10T23:00:19.752Z,25.83
2023-04-10T23:02:48.041Z,28.60
2023-04-10T23:05:16.546Z,29.50
2023-04-10T23:07:44.506Z,24.17
2023-04-10T23:10:12.682Z,28.93
2023-04-10T23:12:42.647Z,27.03
2023-04-10T23:15:11.311Z,31.17
2023-04-10T23:17:40.821Z,30.53
2023-04-10T23:20:09.894Z,28.20
2023-04-10T23:22:37.874Z,31.50
2023-04-10T23:25:06.413Z,31.50
2023-04-10T23:27:34.325Z,29.37
2023-04-10T23:30:02.555Z,29.33
2023-04-10T23:32:31.072Z,28.53
2023-04-10T23:35:01.891Z,19.97
2023-04-10T23:37:30.062Z,28.00
2023-04-10T23:39:58.087Z,18.57
2023-04-10T23:42:26.253Z,18.33
2023-04-10T23:44:55.901Z,16.00
2023-04-10T23:47:23.982Z,17.10
2023-04-10T23:49:52.455Z,13.57
2023-04-10T23:52:22.411Z,12.17
2023-04-10T23:54:50.609Z,13.07
2023-04-10T23:57:19.106Z,11.80
2023-04-10T23:59:47.215Z,12.40
